sensor_id;sensor_type;location;lat;lon;timestamp;temperature;humidity
80279;DHT22;70683;52.492;13.416;2024-03-17T00:00:38;8.00;72.60
80279;DHT22;70683;52.492;13.416;2024-03-17T00:03:06;8.00;72.90
80279;DHT22;70683;52.492;13.416;2024-03-17T00:05:36;8.10;72.70
80279;DHT22;70683;52.492;13.416;2024-03-17T00:08:04;8.00;72.60
80279;DHT22;70683;52.492;13.416;2024-03-17T00:10:31;8.00;72.70
80279;DHT22;70683;52.492;13.416;2024-03-17T00:12:58;8.00;73.30
80279;DHT22;70683;52.492;13.416;2024-03-17T00:15:25;8.00;73.60
80279;DHT22;70683;52.492;13.416;2024-03-17T00:17:52;8.00;73.80
80279;DHT22;70683;52.492;13.416;2024-03-17T00:20:19;8.00;73.10
80279;DHT22;70683;52.492;13.416;2024-03-17T00:22:48;7.90;73.20
80279;DHT22;70683;52.492;13.416;2024-03-17T00:25:17;7.90;74.10
80279;DHT22;70683;52.492;13.416;2024-03-17T00:27:43;7.80;74.00
80279;DHT22;70683;52.492;13.416;2024-03-17T00:30:11;7.80;74.20
80279;DHT22;70683;52.492;13.416;2024-03-17T00:32:40;7.90;73.80
80279;DHT22;70683;52.492;13.416;2024-03-17T00:35:07;7.80;73.50
80279;DHT22;70683;52.492;13.416;2024-03-17T00:37:36;7.80;74.00
80279;DHT22;70683;52.492;13.416;2024-03-17T00:40:04;7.80;74.00
80279;DHT22;70683;52.492;13.416;2024-03-17T00:42:32;7.80;74.10
80279;DHT22;70683;52.492;13.416;2024-03-17T00:44:59;7.70;74.10
80279;DHT22;70683;52.492;13.416;2024-03-17T00:47:27;7.80;74.70
80279;DHT22;70683;52.492;13.416;2024-03-17T00:49:53;7.80;74.70
80279;DHT22;70683;52.492;13.416;2024-03-17T00:52:20;7.90;73.90
80279;DHT22;70683;52.492;13.416;2024-03-17T00:54:47;7.80;74.10
80279;DHT22;70683;52.492;13.416;2024-03-17T00:57:15;7.90;74.90
80279;DHT22;70683;52.492;13.416;2024-03-17T00:59:42;7.90;73.70
80279;DHT22;70683;52.492;13.416;2024-03-17T01:02:11;7.80;74.60
80279;DHT22;70683;52.492;13.416;2024-03-17T01:04:40;7.80;74.50
80279;DHT22;70683;52.492;13.416;2024-03-17T01:07:06;7.70;74.60
80279;DHT22;70683;52.492;13.416;2024-03-17T01:09:33;7.70;74.40
80279;DHT22;70683;52.492;13.416;2024-03-17T01:12:00;7.70;74.50
80279;DHT22;70683;52.492;13.416;2024-03-17T01:14:27;7.60;74.90
80279;DHT22;70683;52.492;13.416;2024-03-17T01:16:55;7.60;74.60
80279;DHT22;70683;52.492;13.416;2024-03-17T01:19:22;7.60;74.60
80279;DHT22;70683;52.492;13.416;2024-03-17T01:21:48;7.60;75.00
80279;DHT22;70683;52.492;13.416;2024-03-17T01:24:17;7.60;76.20
80279;DHT22;70683;52.492;13.416;2024-03-17T01:26:44;7.60;75.00
80279;DHT22;70683;52.492;13.416;2024-03-17T01:29:11;7.60;75.00
80279;DHT22;70683;52.492;13.416;2024-03-17T01:31:38;7.60;75.20
80279;DHT22;70683;52.492;13.416;2024-03-17T01:34:04;7.60;76.00
80279;DHT22;70683;52.492;13.416;2024-03-17T01:36:31;7.50;75.90
80279;DHT22;70683;52.492;13.416;2024-03-17T01:38:58;7.40;76.10
80279;DHT22;70683;52.492;13.416;2024-03-17T01:41:24;7.50;75.90
80279;DHT22;70683;52.492;13.416;2024-03-17T01:43:51;7.60;75.60
80279;DHT22;70683;52.492;13.416;2024-03-17T01:46:18;7.50;75.90
80279;DHT22;70683;52.492;13.416;2024-03-17T01:48:45;7.40;75.70
80279;DHT22;70683;52.492;13.416;2024-03-17T01:51:13;7.40;76.40
80279;DHT22;70683;52.492;13.416;2024-03-17T01:53:42;7.40;76.50
80279;DHT22;70683;52.492;13.416;2024-03-17T01:56:10;7.40;76.10
80279;DHT22;70683;52.492;13.416;2024-03-17T01:58:38;7.30;76.50
80279;DHT22;70683;52.492;13.416;2024-03-17T02:01:04;7.20;77.00
80279;DHT22;70683;52.492;13.416;2024-03-17T02:03:32;7.30;77.60
80279;DHT22;70683;52.492;13.416;2024-03-17T02:05:59;7.30;77.00
80279;DHT22;70683;52.492;13.416;2024-03-17T02:08:26;7.40;77.30
80279;DHT22;70683;52.492;13.416;2024-03-17T02:10:54;7.40;77.00
80279;DHT22;70683;52.492;13.416;2024-03-17T02:13:21;7.40;77.10
80279;DHT22;70683;52.492;13.416;2024-03-17T02:15:48;7.30;77.20
80279;DHT22;70683;52.492;13.416;2024-03-17T02:18:15;7.30;77.30
80279;DHT22;70683;52.492;13.416;2024-03-17T02:20:42;7.50;77.20
80279;DHT22;70683;52.492;13.416;2024-03-17T02:23:14;7.50;76.30
80279;DHT22;70683;52.492;13.416;2024-03-17T02:25:41;7.50;76.20
80279;DHT22;70683;52.492;13.416;2024-03-17T02:28:09;7.40;76.10
80279;DHT22;70683;52.492;13.416;2024-03-17T02:30:36;7.40;76.70
80279;DHT22;70683;52.492;13.416;2024-03-17T02:33:03;7.30;76.70
80279;DHT22;70683;52.492;13.416;2024-03-17T02:35:29;7.30;77.50
80279;DHT22;70683;52.492;13.416;2024-03-17T02:37:56;7.20;77.10
80279;DHT22;70683;52.492;13.416;2024-03-17T02:40:23;7.20;77.20
80279;DHT22;70683;52.492;13.416;2024-03-17T02:42:50;7.10;77.70
80279;DHT22;70683;52.492;13.416;2024-03-17T02:45:16;7.10;77.10
80279;DHT22;70683;52.492;13.416;2024-03-17T02:47:43;7.10;77.60
80279;DHT22;70683;52.492;13.416;2024-03-17T02:50:11;7.10;78.10
80279;DHT22;70683;52.492;13.416;2024-03-17T02:52:37;7.00;78.20
80279;DHT22;70683;52.492;13.416;2024-03-17T02:55:05;7.00;78.30
80279;DHT22;70683;52.492;13.416;2024-03-17T02:57:32;7.00;78.10
80279;DHT22;70683;52.492;13.416;2024-03-17T02:59:59;6.90;78.30
80279;DHT22;70683;52.492;13.416;2024-03-17T03:02:26;7.10;78.10
80279;DHT22;70683;52.492;13.416;2024-03-17T03:04:53;7.10;77.80
80279;DHT22;70683;52.492;13.416;2024-03-17T03:07:19;7.00;78.20
80279;DHT22;70683;52.492;13.416;2024-03-17T03:09:46;6.90;78.50
80279;DHT22;70683;52.492;13.416;2024-03-17T03:12:13;6.90;78.20
80279;DHT22;70683;52.492;13.416;2024-03-17T03:14:39;6.80;78.30
80279;DHT22;70683;52.492;13.416;2024-03-17T03:17:06;6.80;79.20
80279;DHT22;70683;52.492;13.416;2024-03-17T03:19:33;6.80;79.00
80279;DHT22;70683;52.492;13.416;2024-03-17T03:22:00;6.70;79.20
80279;DHT22;70683;52.492;13.416;2024-03-17T03:24:27;6.70;79.80
80279;DHT22;70683;52.492;13.416;2024-03-17T03:26:53;6.70;79.50
80279;DHT22;70683;52.492;13.416;2024-03-17T03:29:20;6.70;79.60
80279;DHT22;70683;52.492;13.416;2024-03-17T03:31:46;6.70;79.90
80279;DHT22;70683;52.492;13.416;2024-03-17T03:34:14;6.60;79.70
80279;DHT22;70683;52.492;13.416;2024-03-17T03:36:40;6.70;79.40
80279;DHT22;70683;52.492;13.416;2024-03-17T03:39:07;6.70;79.90
80279;DHT22;70683;52.492;13.416;2024-03-17T03:41:37;6.60;79.60
80279;DHT22;70683;52.492;13.416;2024-03-17T03:44:04;6.50;79.90
80279;DHT22;70683;52.492;13.416;2024-03-17T03:46:31;6.50;80.40
80279;DHT22;70683;52.492;13.416;2024-03-17T03:48:58;6.50;80.30
80279;DHT22;70683;52.492;13.416;2024-03-17T03:51:24;6.50;80.30
80279;DHT22;70683;52.492;13.416;2024-03-17T03:53:51;6.50;80.30
80279;DHT22;70683;52.492;13.416;2024-03-17T03:56:18;6.50;80.10
80279;DHT22;70683;52.492;13.416;2024-03-17T03:58:46;6.50;80.00
80279;DHT22;70683;52.492;13.416;2024-03-17T04:01:13;6.50;80.90
80279;DHT22;70683;52.492;13.416;2024-03-17T04:03:44;6.40;80.70
80279;DHT22;70683;52.492;13.416;2024-03-17T04:06:11;6.50;81.20
80279;DHT22;70683;52.492;13.416;2024-03-17T04:08:39;6.50;81.20
80279;DHT22;70683;52.492;13.416;2024-03-17T04:11:07;6.50;81.40
80279;DHT22;70683;52.492;13.416;2024-03-17T04:13:34;6.50;81.20
80279;DHT22;70683;52.492;13.416;2024-03-17T04:16:04;6.50;81.00
80279;DHT22;70683;52.492;13.416;2024-03-17T04:18:32;6.60;81.30
80279;DHT22;70683;52.492;13.416;2024-03-17T04:21:03;6.50;81.20
80279;DHT22;70683;52.492;13.416;2024-03-17T04:23:30;6.50;82.00
80279;DHT22;70683;52.492;13.416;2024-03-17T04:25:59;6.50;82.00
80279;DHT22;70683;52.492;13.416;2024-03-17T04:28:27;6.50;82.00
80279;DHT22;70683;52.492;13.416;2024-03-17T04:31:02;6.50;82.00
80279;DHT22;70683;52.492;13.416;2024-03-17T04:33:31;6.40;82.00
80279;DHT22;70683;52.492;13.416;2024-03-17T04:35:57;6.40;82.70
80279;DHT22;70683;52.492;13.416;2024-03-17T04:38:24;6.40;82.50
80279;DHT22;70683;52.492;13.416;2024-03-17T04:40:53;6.40;82.80
80279;DHT22;70683;52.492;13.416;2024-03-17T04:43:22;6.30;83.30
80279;DHT22;70683;52.492;13.416;2024-03-17T04:45:48;6.30;83.00
80279;DHT22;70683;52.492;13.416;2024-03-17T04:48:15;6.20;83.50
80279;DHT22;70683;52.492;13.416;2024-03-17T04:50:42;6.10;83.60
80279;DHT22;70683;52.492;13.416;2024-03-17T04:53:08;6.00;84.80
80279;DHT22;70683;52.492;13.416;2024-03-17T04:55:35;5.90;85.00
80279;DHT22;70683;52.492;13.416;2024-03-17T04:58:01;6.00;85.80
80279;DHT22;70683;52.492;13.416;2024-03-17T05:00:28;5.90;84.70
80279;DHT22;70683;52.492;13.416;2024-03-17T05:02:55;6.00;84.30
80279;DHT22;70683;52.492;13.416;2024-03-17T05:05:21;6.10;84.40
80279;DHT22;70683;52.492;13.416;2024-03-17T05:07:49;6.00;84.10
80279;DHT22;70683;52.492;13.416;2024-03-17T05:10:16;6.00;84.80
80279;DHT22;70683;52.492;13.416;2024-03-17T05:12:43;6.00;84.30
80279;DHT22;70683;52.492;13.416;2024-03-17T05:15:09;5.90;84.20
80279;DHT22;70683;52.492;13.416;2024-03-17T05:17:36;5.80;84.60
80279;DHT22;70683;52.492;13.416;2024-03-17T05:20:03;5.80;84.90
80279;DHT22;70683;52.492;13.416;2024-03-17T05:22:31;5.70;85.00
80279;DHT22;70683;52.492;13.416;2024-03-17T05:24:58;5.70;85.30
80279;DHT22;70683;52.492;13.416;2024-03-17T05:27:24;5.80;85.50
80279;DHT22;70683;52.492;13.416;2024-03-17T05:29:51;5.80;85.10
80279;DHT22;70683;52.492;13.416;2024-03-17T05:32:17;5.80;84.90
80279;DHT22;70683;52.492;13.416;2024-03-17T05:34:44;5.90;85.10
80279;DHT22;70683;52.492;13.416;2024-03-17T05:37:11;6.00;84.30
80279;DHT22;70683;52.492;13.416;2024-03-17T05:39:37;6.00;84.20
80279;DHT22;70683;52.492;13.416;2024-03-17T05:42:04;5.90;84.50
80279;DHT22;70683;52.492;13.416;2024-03-17T05:44:31;6.00;84.20
80279;DHT22;70683;52.492;13.416;2024-03-17T05:47:00;5.90;84.30
80279;DHT22;70683;52.492;13.416;2024-03-17T05:49:27;5.90;84.60
80279;DHT22;70683;52.492;13.416;2024-03-17T05:51:54;5.90;84.70
80279;DHT22;70683;52.492;13.416;2024-03-17T05:54:21;5.90;84.50
80279;DHT22;70683;52.492;13.416;2024-03-17T05:56:48;5.90;84.50
80279;DHT22;70683;52.492;13.416;2024-03-17T05:59:16;6.00;84.10
80279;DHT22;70683;52.492;13.416;2024-03-17T06:01:42;6.00;83.70
80279;DHT22;70683;52.492;13.416;2024-03-17T06:04:09;6.00;84.10
80279;DHT22;70683;52.492;13.416;2024-03-17T06:06:35;6.10;83.90
80279;DHT22;70683;52.492;13.416;2024-03-17T06:09:02;6.10;83.50
80279;DHT22;70683;52.492;13.416;2024-03-17T06:11:30;6.10;83.90
80279;DHT22;70683;52.492;13.416;2024-03-17T06:13:57;6.20;83.90
80279;DHT22;70683;52.492;13.416;2024-03-17T06:16:25;6.30;83.50
80279;DHT22;70683;52.492;13.416;2024-03-17T06:18:52;6.30;83.40
80279;DHT22;70683;52.492;13.416;2024-03-17T06:21:19;6.30;83.40
80279;DHT22;70683;52.492;13.416;2024-03-17T06:23:45;6.40;83.40
80279;DHT22;70683;52.492;13.416;2024-03-17T06:26:12;6.40;83.70
80279;DHT22;70683;52.492;13.416;2024-03-17T06:28:39;6.40;83.10
80279;DHT22;70683;52.492;13.416;2024-03-17T06:31:06;6.40;83.00
80279;DHT22;70683;52.492;13.416;2024-03-17T06:33:36;6.40;83.70
80279;DHT22;70683;52.492;13.416;2024-03-17T06:36:03;6.50;82.70
80279;DHT22;70683;52.492;13.416;2024-03-17T06:38:32;6.40;82.90
80279;DHT22;70683;52.492;13.416;2024-03-17T06:40:59;6.30;82.90
80279;DHT22;70683;52.492;13.416;2024-03-17T06:43:25;6.30;84.40
80279;DHT22;70683;52.492;13.416;2024-03-17T06:45:57;6.40;83.70
80279;DHT22;70683;52.492;13.416;2024-03-17T06:48:25;6.50;83.40
80279;DHT22;70683;52.492;13.416;2024-03-17T06:50:53;6.60;82.50
80279;DHT22;70683;52.492;13.416;2024-03-17T06:53:21;6.70;81.20
80279;DHT22;70683;52.492;13.416;2024-03-17T06:55:54;6.70;81.20
80279;DHT22;70683;52.492;13.416;2024-03-17T06:58:22;6.80;80.50
80279;DHT22;70683;52.492;13.416;2024-03-17T07:00:56;6.90;80.90
80279;DHT22;70683;52.492;13.416;2024-03-17T07:03:24;7.10;80.50
80279;DHT22;70683;52.492;13.416;2024-03-17T07:05:52;7.20;83.40
80279;DHT22;70683;52.492;13.416;2024-03-17T07:08:20;7.30;78.90
80279;DHT22;70683;52.492;13.416;2024-03-17T07:10:55;7.30;79.10
80279;DHT22;70683;52.492;13.416;2024-03-17T07:13:22;7.40;76.70
80279;DHT22;70683;52.492;13.416;2024-03-17T07:15:49;7.40;78.40
80279;DHT22;70683;52.492;13.416;2024-03-17T07:18:16;7.50;80.30
80279;DHT22;70683;52.492;13.416;2024-03-17T07:20:42;7.80;80.80
80279;DHT22;70683;52.492;13.416;2024-03-17T07:23:09;8.10;77.80
80279;DHT22;70683;52.492;13.416;2024-03-17T07:25:36;8.30;77.50
80279;DHT22;70683;52.492;13.416;2024-03-17T07:28:03;8.60;77.30
80279;DHT22;70683;52.492;13.416;2024-03-17T07:30:30;8.60;73.00
80279;DHT22;70683;52.492;13.416;2024-03-17T07:32:57;8.60;73.10
80279;DHT22;70683;52.492;13.416;2024-03-17T07:35:24;8.60;72.00
80279;DHT22;70683;52.492;13.416;2024-03-17T07:37:50;8.60;72.30
80279;DHT22;70683;52.492;13.416;2024-03-17T07:40:17;8.70;74.50
80279;DHT22;70683;52.492;13.416;2024-03-17T07:42:44;8.50;72.00
80279;DHT22;70683;52.492;13.416;2024-03-17T07:45:11;8.60;74.90
80279;DHT22;70683;52.492;13.416;2024-03-17T07:47:38;8.90;73.50
80279;DHT22;70683;52.492;13.416;2024-03-17T07:50:06;9.10;73.00
80279;DHT22;70683;52.492;13.416;2024-03-17T07:52:32;9.20;70.80
80279;DHT22;70683;52.492;13.416;2024-03-17T07:54:59;9.20;69.50
80279;DHT22;70683;52.492;13.416;2024-03-17T07:57:27;9.00;70.50
80279;DHT22;70683;52.492;13.416;2024-03-17T07:59:53;9.00;71.60
80279;DHT22;70683;52.492;13.416;2024-03-17T08:02:20;9.00;71.20
80279;DHT22;70683;52.492;13.416;2024-03-17T08:04:46;9.40;71.60
80279;DHT22;70683;52.492;13.416;2024-03-17T08:07:13;9.80;68.50
80279;DHT22;70683;52.492;13.416;2024-03-17T08:09:40;10.00;65.80
80279;DHT22;70683;52.492;13.416;2024-03-17T08:12:07;10.50;65.80
80279;DHT22;70683;52.492;13.416;2024-03-17T08:14:33;10.40;62.90
80279;DHT22;70683;52.492;13.416;2024-03-17T08:17:00;10.40;64.30
80279;DHT22;70683;52.492;13.416;2024-03-17T08:19:27;10.60;62.20
80279;DHT22;70683;52.492;13.416;2024-03-17T08:21:54;10.90;62.10
80279;DHT22;70683;52.492;13.416;2024-03-17T08:24:20;11.20;60.40
80279;DHT22;70683;52.492;13.416;2024-03-17T08:26:47;11.90;61.20
80279;DHT22;70683;52.492;13.416;2024-03-17T08:29:14;12.70;56.60
80279;DHT22;70683;52.492;13.416;2024-03-17T08:31:40;13.60;54.40
80279;DHT22;70683;52.492;13.416;2024-03-17T08:34:08;13.60;52.50
80279;DHT22;70683;52.492;13.416;2024-03-17T08:36:35;13.30;53.20
80279;DHT22;70683;52.492;13.416;2024-03-17T08:39:01;13.40;53.00
80279;DHT22;70683;52.492;13.416;2024-03-17T08:41:28;14.40;51.30
80279;DHT22;70683;52.492;13.416;2024-03-17T08:43:56;15.10;50.00
80279;DHT22;70683;52.492;13.416;2024-03-17T08:46:24;16.20;47.50
80279;DHT22;70683;52.492;13.416;2024-03-17T08:48:51;16.40;44.80
80279;DHT22;70683;52.492;13.416;2024-03-17T08:51:18;16.10;46.30
80279;DHT22;70683;52.492;13.416;2024-03-17T08:53:44;15.30;45.60
80279;DHT22;70683;52.492;13.416;2024-03-17T08:56:11;14.80;49.50
80279;DHT22;70683;52.492;13.416;2024-03-17T08:58:38;14.10;49.40
80279;DHT22;70683;52.492;13.416;2024-03-17T09:01:06;13.30;50.50
80279;DHT22;70683;52.492;13.416;2024-03-17T09:03:34;12.40;54.20
80279;DHT22;70683;52.492;13.416;2024-03-17T09:06:01;11.90;55.20
80279;DHT22;70683;52.492;13.416;2024-03-17T09:08:28;11.80;57.10
80279;DHT22;70683;52.492;13.416;2024-03-17T09:10:54;11.40;56.80
80279;DHT22;70683;52.492;13.416;2024-03-17T09:13:23;11.70;56.20
80279;DHT22;70683;52.492;13.416;2024-03-17T09:15:54;12.30;56.00
80279;DHT22;70683;52.492;13.416;2024-03-17T09:18:23;12.00;53.90
80279;DHT22;70683;52.492;13.416;2024-03-17T09:21:01;11.80;55.00
80279;DHT22;70683;52.492;13.416;2024-03-17T09:23:29;11.40;54.60
80279;DHT22;70683;52.492;13.416;2024-03-17T09:25:58;10.90;56.20
80279;DHT22;70683;52.492;13.416;2024-03-17T09:28:25;10.90;57.30
80279;DHT22;70683;52.492;13.416;2024-03-17T09:30:52;11.10;57.20
80279;DHT22;70683;52.492;13.416;2024-03-17T09:33:21;11.20;56.40
80279;DHT22;70683;52.492;13.416;2024-03-17T09:35:54;11.30;58.60
80279;DHT22;70683;52.492;13.416;2024-03-17T09:38:21;11.30;55.30
80279;DHT22;70683;52.492;13.416;2024-03-17T09:40:48;11.40;56.50
80279;DHT22;70683;52.492;13.416;2024-03-17T09:43:17;12.20;56.40
80279;DHT22;70683;52.492;13.416;2024-03-17T09:45:44;13.40;53.00
80279;DHT22;70683;52.492;13.416;2024-03-17T09:48:14;14.10;49.70
80279;DHT22;70683;52.492;13.416;2024-03-17T09:50:52;14.30;49.40
80279;DHT22;70683;52.492;13.416;2024-03-17T09:53:24;15.00;48.30
80279;DHT22;70683;52.492;13.416;2024-03-17T09:55:52;15.40;46.50
80279;DHT22;70683;52.492;13.416;2024-03-17T09:58:20;15.40;44.60
80279;DHT22;70683;52.492;13.416;2024-03-17T10:00:47;14.80;45.40
80279;DHT22;70683;52.492;13.416;2024-03-17T10:05:59;15.30;46.90
80279;DHT22;70683;52.492;13.416;2024-03-17T10:08:22;16.10;45.10
80279;DHT22;70683;52.492;13.416;2024-03-17T10:10:52;16.40;42.40
80279;DHT22;70683;52.492;13.416;2024-03-17T10:13:20;16.70;42.20
80279;DHT22;70683;52.492;13.416;2024-03-17T10:15:48;16.20;42.70
80279;DHT22;70683;52.492;13.416;2024-03-17T10:18:22;16.00;48.10
80279;DHT22;70683;52.492;13.416;2024-03-17T10:20:50;15.50;47.90
80279;DHT22;70683;52.492;13.416;2024-03-17T10:23:19;15.60;45.00
80279;DHT22;70683;52.492;13.416;2024-03-17T10:25:47;15.90;43.00
80279;DHT22;70683;52.492;13.416;2024-03-17T10:28:15;16.60;41.40
80279;DHT22;70683;52.492;13.416;2024-03-17T10:30:56;17.20;39.90
80279;DHT22;70683;52.492;13.416;2024-03-17T10:33:21;17.70;39.00
80279;DHT22;70683;52.492;13.416;2024-03-17T10:35:48;18.20;39.00
80279;DHT22;70683;52.492;13.416;2024-03-17T10:38:16;18.90;37.50
80279;DHT22;70683;52.492;13.416;2024-03-17T10:40:43;19.20;34.50
80279;DHT22;70683;52.492;13.416;2024-03-17T10:43:10;19.80;34.90
80279;DHT22;70683;52.492;13.416;2024-03-17T10:45:37;19.70;34.60
80279;DHT22;70683;52.492;13.416;2024-03-17T10:48:07;19.30;34.70
80279;DHT22;70683;52.492;13.416;2024-03-17T10:50:36;19.00;33.60
80279;DHT22;70683;52.492;13.416;2024-03-17T10:53:06;18.30;34.70
80279;DHT22;70683;52.492;13.416;2024-03-17T10:55:43;18.40;36.40
80279;DHT22;70683;52.492;13.416;2024-03-17T10:58:22;18.50;36.50
80279;DHT22;70683;52.492;13.416;2024-03-17T11:00:46;19.00;36.30
80279;DHT22;70683;52.492;13.416;2024-03-17T11:03:13;19.50;35.80
80279;DHT22;70683;52.492;13.416;2024-03-17T11:05:42;19.60;35.10
80279;DHT22;70683;52.492;13.416;2024-03-17T11:08:14;19.00;33.90
80279;DHT22;70683;52.492;13.416;2024-03-17T11:10:39;18.20;36.30
80279;DHT22;70683;52.492;13.416;2024-03-17T11:13:22;17.40;37.30
80279;DHT22;70683;52.492;13.416;2024-03-17T11:15:38;16.30;38.00
80279;DHT22;70683;52.492;13.416;2024-03-17T11:18:28;15.30;40.90
80279;DHT22;70683;52.492;13.416;2024-03-17T11:21:07;14.80;41.50
80279;DHT22;70683;52.492;13.416;2024-03-17T11:23:37;14.70;43.10
80279;DHT22;70683;52.492;13.416;2024-03-17T11:26:05;14.90;42.70
80279;DHT22;70683;52.492;13.416;2024-03-17T11:28:45;15.60;43.30
80279;DHT22;70683;52.492;13.416;2024-03-17T11:31:40;15.80;41.50
80279;DHT22;70683;52.492;13.416;2024-03-17T11:36:46;16.60;39.40
80279;DHT22;70683;52.492;13.416;2024-03-17T11:39:12;16.10;39.20
80279;DHT22;70683;52.492;13.416;2024-03-17T11:41:46;15.70;40.20
80279;DHT22;70683;52.492;13.416;2024-03-17T11:44:25;15.20;41.40
80279;DHT22;70683;52.492;13.416;2024-03-17T11:46:58;14.80;44.40
80279;DHT22;70683;52.492;13.416;2024-03-17T11:49:28;14.30;43.60
80279;DHT22;70683;52.492;13.416;2024-03-17T11:51:59;13.70;44.40
80279;DHT22;70683;52.492;13.416;2024-03-17T11:54:29;13.50;44.50
80279;DHT22;70683;52.492;13.416;2024-03-17T11:57:03;13.50;44.70
80279;DHT22;70683;52.492;13.416;2024-03-17T11:59:30;13.50;46.20
80279;DHT22;70683;52.492;13.416;2024-03-17T12:01:56;13.60;46.90
80279;DHT22;70683;52.492;13.416;2024-03-17T12:04:24;13.60;46.70
80279;DHT22;70683;52.492;13.416;2024-03-17T12:06:55;13.60;46.70
80279;DHT22;70683;52.492;13.416;2024-03-17T12:09:23;13.50;46.50
80279;DHT22;70683;52.492;13.416;2024-03-17T12:11:59;13.40;44.00
80279;DHT22;70683;52.492;13.416;2024-03-17T12:14:21;13.70;45.50
80279;DHT22;70683;52.492;13.416;2024-03-17T12:17:06;14.00;44.20
80279;DHT22;70683;52.492;13.416;2024-03-17T12:19:33;14.10;42.90
80279;DHT22;70683;52.492;13.416;2024-03-17T12:22:04;13.70;42.90
80279;DHT22;70683;52.492;13.416;2024-03-17T12:24:32;13.20;42.50
80279;DHT22;70683;52.492;13.416;2024-03-17T12:27:01;12.70;44.00
80279;DHT22;70683;52.492;13.416;2024-03-17T12:29:33;12.70;46.40
80279;DHT22;70683;52.492;13.416;2024-03-17T12:32:04;12.60;45.00
80279;DHT22;70683;52.492;13.416;2024-03-17T12:34:33;12.50;44.90
80279;DHT22;70683;52.492;13.416;2024-03-17T12:37:01;12.40;46.30
80279;DHT22;70683;52.492;13.416;2024-03-17T12:39:30;12.30;46.90
80279;DHT22;70683;52.492;13.416;2024-03-17T12:42:07;12.20;46.80
80279;DHT22;70683;52.492;13.416;2024-03-17T12:44:35;12.30;48.80
80279;DHT22;70683;52.492;13.416;2024-03-17T12:47:05;12.30;47.30
80279;DHT22;70683;52.492;13.416;2024-03-17T12:49:33;12.50;47.70
80279;DHT22;70683;52.492;13.416;2024-03-17T12:52:01;12.50;48.20
80279;DHT22;70683;52.492;13.416;2024-03-17T12:54:29;12.70;48.20
80279;DHT22;70683;52.492;13.416;2024-03-17T12:57:04;13.00;48.50
80279;DHT22;70683;52.492;13.416;2024-03-17T12:59:38;13.20;46.10
80279;DHT22;70683;52.492;13.416;2024-03-17T13:02:11;13.30;45.50
80279;DHT22;70683;52.492;13.416;2024-03-17T13:04:38;13.30;44.30
80279;DHT22;70683;52.492;13.416;2024-03-17T13:07:10;13.10;44.20
80279;DHT22;70683;52.492;13.416;2024-03-17T13:09:38;13.10;45.00
80279;DHT22;70683;52.492;13.416;2024-03-17T13:12:13;12.80;45.00
80279;DHT22;70683;52.492;13.416;2024-03-17T13:14:41;13.00;47.80
80279;DHT22;70683;52.492;13.416;2024-03-17T13:17:11;13.30;47.30
80279;DHT22;70683;52.492;13.416;2024-03-17T13:19:38;13.30;45.10
80279;DHT22;70683;52.492;13.416;2024-03-17T13:22:06;13.30;44.90
80279;DHT22;70683;52.492;13.416;2024-03-17T13:24:34;13.30;45.80
80279;DHT22;70683;52.492;13.416;2024-03-17T13:27:01;13.30;46.00
80279;DHT22;70683;52.492;13.416;2024-03-17T13:29:30;13.40;45.40
80279;DHT22;70683;52.492;13.416;2024-03-17T13:31:59;13.20;44.00
80279;DHT22;70683;52.492;13.416;2024-03-17T13:34:25;13.20;44.90
80279;DHT22;70683;52.492;13.416;2024-03-17T13:36:53;13.10;44.50
80279;DHT22;70683;52.492;13.416;2024-03-17T13:39:20;13.00;44.40
80279;DHT22;70683;52.492;13.416;2024-03-17T13:41:48;13.00;44.50
80279;DHT22;70683;52.492;13.416;2024-03-17T13:44:16;13.10;46.40
80279;DHT22;70683;52.492;13.416;2024-03-17T13:46:43;13.20;44.40
80279;DHT22;70683;52.492;13.416;2024-03-17T13:49:10;13.20;44.50
80279;DHT22;70683;52.492;13.416;2024-03-17T13:51:37;13.10;45.60
80279;DHT22;70683;52.492;13.416;2024-03-17T13:54:03;13.20;45.90
80279;DHT22;70683;52.492;13.416;2024-03-17T13:56:30;13.30;45.50
80279;DHT22;70683;52.492;13.416;2024-03-17T13:58:57;13.40;46.30
80279;DHT22;70683;52.492;13.416;2024-03-17T14:01:24;13.30;45.10
80279;DHT22;70683;52.492;13.416;2024-03-17T14:03:50;13.30;46.40
80279;DHT22;70683;52.492;13.416;2024-03-17T14:06:18;13.20;44.60
80279;DHT22;70683;52.492;13.416;2024-03-17T14:08:45;13.10;44.70
80279;DHT22;70683;52.492;13.416;2024-03-17T14:11:12;13.00;45.70
80279;DHT22;70683;52.492;13.416;2024-03-17T14:13:39;12.80;44.50
80279;DHT22;70683;52.492;13.416;2024-03-17T14:16:06;12.60;44.00
80279;DHT22;70683;52.492;13.416;2024-03-17T14:18:33;12.40;45.30
80279;DHT22;70683;52.492;13.416;2024-03-17T14:21:00;12.20;45.70
80279;DHT22;70683;52.492;13.416;2024-03-17T14:23:26;12.20;46.70
80279;DHT22;70683;52.492;13.416;2024-03-17T14:25:55;12.20;46.90
80279;DHT22;70683;52.492;13.416;2024-03-17T14:28:22;12.20;47.70
80279;DHT22;70683;52.492;13.416;2024-03-17T14:30:49;12.20;48.30
80279;DHT22;70683;52.492;13.416;2024-03-17T14:33:15;12.20;47.40
80279;DHT22;70683;52.492;13.416;2024-03-17T14:35:42;12.20;46.70
80279;DHT22;70683;52.492;13.416;2024-03-17T14:38:10;12.20;47.50
80279;DHT22;70683;52.492;13.416;2024-03-17T14:40:37;12.20;46.10
80279;DHT22;70683;52.492;13.416;2024-03-17T14:43:04;12.30;47.40
80279;DHT22;70683;52.492;13.416;2024-03-17T14:45:31;12.40;45.60
80279;DHT22;70683;52.492;13.416;2024-03-17T14:47:57;12.30;45.80
80279;DHT22;70683;52.492;13.416;2024-03-17T14:50:24;12.20;46.60
80279;DHT22;70683;52.492;13.416;2024-03-17T14:52:51;12.10;47.30
80279;DHT22;70683;52.492;13.416;2024-03-17T14:55:18;11.80;47.50
80279;DHT22;70683;52.492;13.416;2024-03-17T14:57:45;11.60;49.00
80279;DHT22;70683;52.492;13.416;2024-03-17T15:00:12;11.60;48.60
80279;DHT22;70683;52.492;13.416;2024-03-17T15:02:44;11.50;50.40
80279;DHT22;70683;52.492;13.416;2024-03-17T15:05:13;11.50;49.50
80279;DHT22;70683;52.492;13.416;2024-03-17T15:07:41;11.50;49.80
80279;DHT22;70683;52.492;13.416;2024-03-17T15:10:08;11.60;51.50
80279;DHT22;70683;52.492;13.416;2024-03-17T15:12:34;11.60;50.60
80279;DHT22;70683;52.492;13.416;2024-03-17T15:15:01;11.70;49.30
80279;DHT22;70683;52.492;13.416;2024-03-17T15:17:27;11.60;50.30
80279;DHT22;70683;52.492;13.416;2024-03-17T15:19:54;11.70;50.10
80279;DHT22;70683;52.492;13.416;2024-03-17T15:22:21;11.70;47.60
80279;DHT22;70683;52.492;13.416;2024-03-17T15:24:48;11.70;48.10
80279;DHT22;70683;52.492;13.416;2024-03-17T15:27:15;11.70;48.00
80279;DHT22;70683;52.492;13.416;2024-03-17T15:29:41;11.70;48.80
80279;DHT22;70683;52.492;13.416;2024-03-17T15:32:08;11.70;48.20
80279;DHT22;70683;52.492;13.416;2024-03-17T15:34:34;11.60;49.60